METAR Data
IDs: Format: Raw Decoded Include TAF

Data at: 2154 UTC 01 Dec 2021

KFPK 012135Z AUTO 15007KT 10SM SCT022 BKN044 OVC070 05/01 A2982 RMK AO2 T00500012